Time;durP1;ratioP1;P1;durP2;ratioP2;P2;SDS_P1;SDS_P2;PMS_P1;PMS_P2;Temp;Humidity;BMP_temperature;BMP_pressure;BME280_temperature;BME280_humidity;BME280_pressure;Samples;Min_cycle;Max_cycle;Signal;HPM_P1;HPM_P2
2022/05/21 00:00:20;;;;;;;4.77;4.37;;;20.50;99.90;;;;;;5084633;28;20659;-87
2022/05/21 00:02:47;;;;;;;3.87;3.57;;;20.60;99.90;;;;;;5083735;28;21201;-87
2022/05/21 00:05:15;;;;;;;4.07;3.77;;;20.50;99.90;;;;;;5080990;28;20624;-87
2022/05/21 00:07:43;;;;;;;3.50;3.20;;;20.50;99.90;;;;;;5077430;28;21143;-87
2022/05/21 00:10:12;;;;;;;3.70;3.37;;;20.30;99.90;;;;;;5081219;28;20640;-87
2022/05/21 00:12:39;;;;;;;4.40;3.13;;;20.10;99.90;;;;;;5082602;28;20636;-86
2022/05/21 00:15:09;;;;;;;3.30;3.00;;;20.00;99.90;;;;;;5081997;28;20660;-87
2022/05/21 00:17:36;;;;;;;3.90;3.60;;;19.90;99.90;;;;;;5078219;28;20630;-87
2022/05/21 00:20:04;;;;;;;3.73;3.30;;;20.00;99.90;;;;;;5081823;28;20664;-87
2022/05/21 00:22:31;;;;;;;3.23;2.93;;;20.10;99.90;;;;;;5080350;28;21197;-87
2022/05/21 00:24:57;;;;;;;6.07;3.37;;;20.00;99.90;;;;;;5083287;28;21246;-87
2022/05/21 00:27:24;;;;;;;3.10;2.90;;;19.90;99.90;;;;;;5080652;28;20638;-87
2022/05/21 00:29:51;;;;;;;5.80;3.43;;;20.00;99.90;;;;;;5081619;28;20644;-87
2022/05/21 00:32:19;;;;;;;2.80;2.70;;;20.00;99.90;;;;;;5083613;28;20628;-87
2022/05/21 00:34:46;;;;;;;3.00;2.50;;;20.00;99.90;;;;;;5085291;28;20661;-87
2022/05/21 00:37:13;;;;;;;3.50;3.20;;;20.10;99.90;;;;;;5085181;28;20627;-87
2022/05/21 00:39:39;;;;;;;4.17;2.90;;;20.00;99.90;;;;;;5086565;28;20643;-87
2022/05/21 00:42:08;;;;;;;3.43;2.83;;;20.00;99.90;;;;;;5085867;28;20624;-87
2022/05/21 00:44:35;;;;;;;3.67;3.27;;;19.90;99.90;;;;;;5087996;28;20628;-89
2022/05/21 00:47:01;;;;;;;3.27;3.07;;;19.90;99.90;;;;;;5077440;28;20628;-87
2022/05/21 00:49:33;;;;;;;3.13;2.93;;;19.90;99.90;;;;;;5076959;28;21005;-87
2022/05/21 00:52:07;;;;;;;3.17;2.87;;;19.90;99.90;;;;;;5084446;28;20700;-87
2022/05/21 00:54:37;;;;;;;3.90;3.13;;;19.70;99.90;;;;;;5083934;28;20625;-88
2022/05/21 00:57:08;;;;;;;3.70;3.40;;;19.60;99.90;;;;;;5088297;28;20627;-87
2022/05/21 00:59:47;;;;;;;2.80;2.60;;;19.70;99.90;;;;;;5085262;28;20641;-87
2022/05/21 01:02:16;;;;;;;3.07;2.87;;;19.50;99.90;;;;;;5083350;28;20634;-87
2022/05/21 01:04:45;;;;;;;2.50;2.40;;;19.50;99.90;;;;;;5084879;28;20624;-87
2022/05/21 01:07:14;;;;;;;3.50;3.20;;;19.50;99.90;;;;;;5087865;28;20628;-87
2022/05/21 01:09:44;;;;;;;5.17;3.17;;;19.70;99.90;;;;;;5080030;28;20744;-87
2022/05/21 01:12:11;;;;;;;3.40;2.93;;;19.70;99.90;;;;;;5088486;28;20968;-87
2022/05/21 01:14:38;;;;;;;4.20;2.53;;;19.80;99.90;;;;;;5086325;28;20628;-87
2022/05/21 01:17:05;;;;;;;3.50;3.20;;;20.00;99.90;;;;;;5087189;28;20636;-87
2022/05/21 01:19:32;;;;;;;3.43;3.10;;;19.90;99.90;;;;;;5089453;28;20656;-87
2022/05/21 01:22:03;;;;;;;2.40;2.30;;;19.90;99.90;;;;;;5088989;28;20625;-87
2022/05/21 01:24:32;;;;;;;2.53;2.33;;;19.90;99.90;;;;;;5087136;28;21190;-87
2022/05/21 01:26:59;;;;;;;3.23;2.83;;;19.80;99.90;;;;;;5086112;28;20638;-87
2022/05/21 01:29:30;;;;;;;3.10;2.90;;;19.70;99.90;;;;;;5085378;28;20623;-87
2022/05/21 01:31:56;;;;;;;4.97;3.00;;;19.50;99.90;;;;;;5077562;28;20620;-87
2022/05/21 01:34:26;;;;;;;2.70;2.50;;;19.50;99.90;;;;;;5081148;28;20620;-87
2022/05/21 01:36:53;;;;;;;2.70;2.50;;;19.80;99.90;;;;;;5085063;28;20668;-87
2022/05/21 01:39:20;;;;;;;2.77;2.50;;;19.90;99.90;;;;;;5085264;28;20628;-87
2022/05/21 01:41:48;;;;;;;3.33;2.70;;;19.90;99.90;;;;;;5079639;28;20630;-87
2022/05/21 01:46:59;;;;;;;3.13;1.90;;;19.80;99.90;;;;;;5081991;28;20574;-87
2022/05/21 01:49:26;;;;;;;2.30;2.10;;;19.60;99.90;;;;;;5084081;28;20639;-86
2022/05/21 01:51:53;;;;;;;2.10;1.90;;;19.20;99.90;;;;;;5085408;28;20616;-86
2022/05/21 01:54:20;;;;;;;2.37;2.17;;;18.90;99.90;;;;;;5080340;28;21034;-87
2022/05/21 01:56:48;;;;;;;2.63;2.43;;;18.70;99.90;;;;;;5084410;28;21009;-87
2022/05/21 01:59:15;;;;;;;4.17;2.77;;;18.40;99.90;;;;;;5081638;28;20607;-87
2022/05/21 02:01:42;;;;;;;3.07;2.17;;;18.30;99.90;;;;;;5076419;28;20683;-87
2022/05/21 02:04:09;;;;;;;2.10;2.00;;;18.20;99.90;;;;;;5079764;28;20646;-87
2022/05/21 02:06:35;;;;;;;3.20;2.20;;;18.20;99.90;;;;;;5083547;28;20650;-86
2022/05/21 02:09:03;;;;;;;2.80;2.30;;;18.10;99.90;;;;;;5084420;28;20628;-87
2022/05/21 02:11:29;;;;;;;2.47;2.27;;;18.10;99.90;;;;;;5080016;28;21311;-87
2022/05/21 02:13:58;;;;;;;2.37;1.93;;;18.10;99.90;;;;;;5085730;28;21138;-87
2022/05/21 02:16:24;;;;;;;2.00;1.90;;;18.20;99.90;;;;;;5082596;28;20674;-87
2022/05/21 02:18:51;;;;;;;2.50;2.30;;;18.10;99.90;;;;;;5079517;28;20626;-86
2022/05/21 02:21:18;;;;;;;2.40;2.20;;;18.00;99.90;;;;;;5085932;28;20655;-86
2022/05/21 02:23:45;;;;;;;2.70;2.23;;;18.00;99.90;;;;;;5082901;28;20986;-87
2022/05/21 02:26:12;;;;;;;3.80;2.37;;;18.10;99.90;;;;;;5084431;28;20953;-87
2022/05/21 02:28:39;;;;;;;2.37;2.23;;;18.00;99.90;;;;;;5080305;28;20633;-87
2022/05/21 02:31:07;;;;;;;2.13;1.93;;;18.00;99.90;;;;;;5080686;28;20640;-86
2022/05/21 02:33:34;;;;;;;2.23;2.10;;;18.00;99.90;;;;;;5079126;28;20624;-87
2022/05/21 02:36:01;;;;;;;2.30;2.10;;;18.00;99.90;;;;;;5082594;28;20665;-87
2022/05/21 02:41:13;;;;;;;2.87;2.30;;;17.70;99.90;;;;;;5074781;28;20748;-87
2022/05/21 02:43:40;;;;;;;2.37;2.27;;;17.60;99.90;;;;;;5079290;28;21171;-86
2022/05/21 02:46:09;;;;;;;3.10;2.40;;;17.50;99.90;;;;;;5084702;28;20623;-87
2022/05/21 02:48:36;;;;;;;2.30;2.13;;;17.40;99.90;;;;;;5093654;28;21042;-87
2022/05/21 02:51:04;;;;;;;2.70;2.50;;;17.60;99.90;;;;;;5094468;28;20663;-87
2022/05/21 02:53:31;;;;;;;2.73;2.53;;;17.60;99.90;;;;;;5097038;28;20632;-87
2022/05/21 02:56:04;;;;;;;2.47;2.27;;;17.60;99.90;;;;;;5097194;28;20733;-87
2022/05/21 02:58:31;;;;;;;2.30;2.10;;;17.70;99.90;;;;;;5099936;28;21084;-87
2022/05/21 03:00:58;;;;;;;2.90;2.67;;;17.60;99.90;;;;;;5096772;28;20652;-87
2022/05/21 03:03:26;;;;;;;6.90;2.77;;;17.70;99.90;;;;;;5101714;28;20648;-86
2022/05/21 03:05:53;;;;;;;2.93;2.63;;;17.60;99.90;;;;;;5100833;28;20620;-86
2022/05/21 03:11:04;;;;;;;2.90;2.70;;;17.50;99.90;;;;;;5092844;28;20705;-86
2022/05/21 03:13:34;;;;;;;3.43;3.17;;;17.40;99.90;;;;;;5096017;28;20635;-86
2022/05/21 03:16:02;;;;;;;2.90;2.63;;;17.40;99.90;;;;;;5098316;28;20663;-87
2022/05/21 03:18:30;;;;;;;3.50;3.20;;;17.40;99.90;;;;;;5087174;28;20619;-87
2022/05/21 03:20:58;;;;;;;4.53;4.10;;;17.20;99.90;;;;;;5092988;28;20647;-86
2022/05/21 03:23:24;;;;;;;3.00;2.80;;;17.00;99.90;;;;;;5092850;28;20626;-86
2022/05/21 03:25:52;;;;;;;4.20;2.70;;;17.00;99.90;;;;;;5106939;28;20592;-87
2022/05/21 03:28:21;;;;;;;2.63;2.53;;;16.80;99.90;;;;;;5095419;28;20625;-86
2022/05/21 03:30:49;;;;;;;3.70;3.40;;;16.80;99.90;;;;;;5090580;28;21015;-87
2022/05/21 03:33:16;;;;;;;2.83;2.60;;;16.80;99.90;;;;;;5090571;28;20627;-86
2022/05/21 03:35:44;;;;;;;2.73;2.53;;;16.90;99.90;;;;;;5082320;28;20714;-86
2022/05/21 03:38:12;;;;;;;3.13;2.83;;;16.90;99.90;;;;;;5081772;28;20624;-86
2022/05/21 03:40:39;;;;;;;3.03;2.37;;;17.00;99.90;;;;;;5086515;28;20739;-87
2022/05/21 03:43:07;;;;;;;4.00;3.10;;;17.00;99.90;;;;;;5083566;28;20624;-86
2022/05/21 03:45:34;;;;;;;2.73;2.57;;;17.10;99.90;;;;;;5081671;28;21050;-86
2022/05/21 03:48:01;;;;;;;3.00;2.80;;;17.00;99.90;;;;;;5078905;28;21500;-87
2022/05/21 03:50:31;;;;;;;3.30;3.00;;;17.10;99.90;;;;;;5080983;28;20656;-87
2022/05/21 03:52:59;;;;;;;2.97;2.77;;;17.00;99.90;;;;;;5082637;28;20635;-87
2022/05/21 03:55:26;;;;;;;3.40;3.10;;;17.10;99.90;;;;;;5085697;28;20623;-86
2022/05/21 03:57:53;;;;;;;3.40;3.20;;;17.10;99.90;;;;;;5079997;28;20609;-87
2022/05/21 04:00:21;;;;;;;4.00;3.13;;;17.00;99.90;;;;;;5080951;28;20742;-87
2022/05/21 04:02:48;;;;;;;4.10;3.80;;;17.00;99.90;;;;;;5087461;28;20636;-87
2022/05/21 04:05:15;;;;;;;3.20;2.87;;;17.00;99.90;;;;;;5082725;28;21001;-87
2022/05/21 04:07:42;;;;;;;3.43;3.17;;;16.90;99.90;;;;;;5088795;28;21186;-87
2022/05/21 04:10:13;;;;;;;3.13;2.93;;;16.90;99.90;;;;;;5080373;28;20652;-87
2022/05/21 04:12:39;;;;;;;3.67;3.20;;;16.80;99.90;;;;;;5080043;28;20625;-86
2022/05/21 04:15:08;;;;;;;4.90;3.03;;;16.80;99.90;;;;;;5079717;28;20651;-86
2022/05/21 04:17:36;;;;;;;4.17;3.20;;;16.80;99.90;;;;;;5081585;28;20665;-87
2022/05/21 04:20:04;;;;;;;3.17;2.97;;;16.70;99.90;;;;;;5083271;28;20675;-87
2022/05/21 04:22:31;;;;;;;4.10;3.73;;;16.70;99.90;;;;;;5078216;28;20651;-86
2022/05/21 04:24:59;;;;;;;3.30;3.10;;;16.60;99.90;;;;;;5085805;28;20638;-87
2022/05/21 04:27:27;;;;;;;3.30;3.00;;;16.70;99.90;;;;;;5082206;28;20616;-86
2022/05/21 04:29:54;;;;;;;3.70;3.40;;;16.70;99.90;;;;;;5079260;28;20655;-86
2022/05/21 04:32:21;;;;;;;4.03;3.73;;;16.80;99.90;;;;;;5079268;28;21045;-86
2022/05/21 04:34:50;;;;;;;3.40;3.10;;;16.70;99.90;;;;;;5082921;28;20624;-86
2022/05/21 04:37:17;;;;;;;3.80;3.00;;;16.60;99.90;;;;;;5081264;28;21096;-86
2022/05/21 04:39:43;;;;;;;3.93;3.63;;;16.60;99.90;;;;;;5078892;28;20648;-87
2022/05/21 04:42:10;;;;;;;4.83;3.60;;;16.50;99.90;;;;;;5077292;28;20655;-86
2022/05/21 04:44:39;;;;;;;7.13;3.33;;;16.50;99.90;;;;;;5081584;28;20629;-86
2022/05/21 04:47:06;;;;;;;3.23;3.03;;;16.70;99.90;;;;;;5083699;28;20620;-86
2022/05/21 04:49:35;;;;;;;3.00;2.80;;;16.60;99.90;;;;;;5081461;28;20657;-86
2022/05/21 04:52:02;;;;;;;3.70;3.50;;;16.70;99.90;;;;;;5082682;28;20718;-86
2022/05/21 04:54:29;;;;;;;4.13;3.70;;;16.60;99.90;;;;;;5076481;28;20636;-86
2022/05/21 04:56:57;;;;;;;3.53;3.23;;;16.60;99.90;;;;;;5082287;28;20656;-86
2022/05/21 04:59:24;;;;;;;2.80;2.60;;;16.70;99.90;;;;;;5080763;28;20644;-87
2022/05/21 05:01:52;;;;;;;4.13;3.37;;;16.80;99.90;;;;;;5084263;28;20698;-87
2022/05/21 05:04:19;;;;;;;3.03;2.20;;;16.70;99.90;;;;;;5084280;28;20635;-87
2022/05/21 05:06:46;;;;;;;3.87;2.17;;;16.70;99.90;;;;;;5082227;28;20627;-86
2022/05/21 05:09:12;;;;;;;3.00;2.57;;;16.70;99.90;;;;;;5083825;28;20620;-87
2022/05/21 05:11:40;;;;;;;6.70;2.43;;;16.50;99.90;;;;;;5083971;28;20693;-87
2022/05/21 05:14:07;;;;;;;2.20;2.10;;;16.50;99.90;;;;;;5082634;28;20632;-87
2022/05/21 05:16:33;;;;;;;2.27;2.10;;;16.50;99.90;;;;;;5086771;28;20664;-87
2022/05/21 05:19:02;;;;;;;2.30;2.10;;;16.50;99.90;;;;;;5087093;28;20642;-87
2022/05/21 05:21:29;;;;;;;2.37;2.20;;;16.50;99.90;;;;;;5089370;28;20636;-86
2022/05/21 05:23:56;;;;;;;2.53;2.30;;;16.60;99.90;;;;;;5087512;28;20625;-87
2022/05/21 05:26:23;;;;;;;2.00;1.80;;;16.60;99.90;;;;;;5086435;28;20628;-86
2022/05/21 05:28:50;;;;;;;1.73;1.63;;;16.70;99.90;;;;;;5081438;28;20667;-86
2022/05/21 05:31:16;;;;;;;3.23;2.00;;;16.80;99.90;;;;;;5087090;28;20644;-87
2022/05/21 05:33:43;;;;;;;2.07;1.50;;;16.80;99.90;;;;;;5091697;28;20643;-87
2022/05/21 05:36:11;;;;;;;1.73;1.63;;;17.00;99.90;;;;;;5088804;28;20630;-87
2022/05/21 05:38:38;;;;;;;1.50;1.40;;;17.00;99.90;;;;;;5085636;28;20624;-87
2022/05/21 05:41:08;;;;;;;2.60;1.73;;;17.00;99.90;;;;;;5076167;28;20652;-87
2022/05/21 05:43:35;;;;;;;1.80;1.40;;;16.90;99.90;;;;;;5083698;28;20613;-87
2022/05/21 05:46:01;;;;;;;2.57;1.63;;;16.90;99.90;;;;;;5089968;28;20623;-88
2022/05/21 05:48:29;;;;;;;1.87;1.67;;;16.90;99.90;;;;;;5087984;28;21162;-87
2022/05/21 05:50:57;;;;;;;1.50;1.17;;;17.00;99.90;;;;;;5086287;28;21044;-87
2022/05/21 05:53:25;;;;;;;1.60;1.50;;;17.00;99.90;;;;;;5087889;28;20624;-87
2022/05/21 05:55:52;;;;;;;1.90;1.80;;;17.20;99.90;;;;;;5085606;28;21176;-87
2022/05/21 06:01:03;;;;;;;1.53;1.30;;;17.30;99.90;;;;;;5084736;28;21193;-87
2022/05/21 06:03:30;;;;;;;1.47;1.33;;;17.30;99.90;;;;;;5083771;28;20640;-87
2022/05/21 06:05:57;;;;;;;1.80;1.70;;;17.20;99.90;;;;;;5083584;28;20631;-88
2022/05/21 06:08:25;;;;;;;2.53;1.87;;;17.00;99.90;;;;;;5082307;28;20624;-89
2022/05/21 06:10:52;;;;;;;2.17;1.27;;;16.90;99.90;;;;;;5084338;28;20655;-89
2022/05/21 06:13:19;;;;;;;1.97;1.23;;;17.00;99.90;;;;;;5087551;28;20588;-89
2022/05/21 06:15:47;;;;;;;2.63;1.40;;;17.10;99.90;;;;;;5085432;28;20747;-89
2022/05/21 06:18:19;;;;;;;2.70;1.20;;;17.30;99.90;;;;;;5086542;28;20659;-89
2022/05/21 06:20:46;;;;;;;1.90;1.10;;;17.30;99.90;;;;;;5079833;28;21254;-88
2022/05/21 06:23:13;;;;;;;1.77;1.00;;;17.30;99.90;;;;;;5086760;28;20628;-88
2022/05/21 06:25:42;;;;;;;2.50;1.40;;;17.40;99.90;;;;;;5086747;28;20624;-88
2022/05/21 06:28:09;;;;;;;1.77;1.07;;;17.50;99.90;;;;;;5085215;28;20631;-88
2022/05/21 06:30:38;;;;;;;1.83;1.20;;;17.70;99.90;;;;;;5084073;28;20751;-88
2022/05/21 06:33:17;;;;;;;4.37;1.20;;;17.70;99.90;;;;;;5075701;28;20640;-88
2022/05/21 06:35:44;;;;;;;1.27;0.97;;;17.50;99.90;;;;;;5081139;28;20612;-88
2022/05/21 06:38:11;;;;;;;3.23;1.53;;;17.50;99.90;;;;;;5084418;28;20660;-88
2022/05/21 06:43:24;;;;;;;2.57;1.43;;;17.40;99.90;;;;;;5093226;28;20640;-89
2022/05/21 06:45:51;;;;;;;2.60;1.37;;;17.60;99.90;;;;;;5090182;28;21051;-90
2022/05/21 06:48:17;;;;;;;1.33;1.13;;;17.70;98.70;;;;;;5093329;28;20612;-88
2022/05/21 06:50:44;;;;;;;1.30;1.20;;;17.70;98.90;;;;;;5090899;28;20647;-89
2022/05/21 06:53:11;;;;;;;6.40;1.43;;;17.80;99.90;;;;;;5085047;28;20624;-89
2022/05/21 06:55:39;;;;;;;3.43;1.70;;;17.80;99.40;;;;;;5084983;28;20635;-88
2022/05/21 06:58:07;;;;;;;2.30;1.10;;;17.80;99.30;;;;;;5083996;28;20663;-89
2022/05/21 07:00:34;;;;;;;2.00;1.00;;;17.90;99.90;;;;;;5077740;28;20647;-89
2022/05/21 07:03:02;;;;;;;3.47;1.40;;;18.20;99.90;;;;;;5084803;28;20700;-89
2022/05/21 07:08:20;;;;;;;2.00;0.80;;;18.30;98.40;;;;;;5083954;28;20628;-89
2022/05/21 07:10:47;;;;;;;1.10;0.97;;;18.30;95.60;;;;;;5085762;28;20725;-89
2022/05/21 07:13:16;;;;;;;1.73;0.80;;;18.30;98.80;;;;;;5082886;28;20635;-89
2022/05/21 07:15:43;;;;;;;3.07;1.07;;;18.40;96.70;;;;;;5082571;28;20638;-89
2022/05/21 07:18:12;;;;;;;1.07;0.97;;;18.40;97.30;;;;;;5085139;28;21033;-89
2022/05/21 07:20:40;;;;;;;2.70;1.20;;;18.60;99.90;;;;;;5086229;28;21237;-89
2022/05/21 07:23:07;;;;;;;0.80;0.70;;;18.70;97.20;;;;;;5087145;28;20635;-89
2022/05/21 07:25:33;;;;;;;1.50;1.20;;;18.90;99.90;;;;;;5083329;28;21171;-89
2022/05/21 07:28:01;;;;;;;1.27;0.90;;;19.00;96.40;;;;;;5082834;28;20992;-89
2022/05/21 07:30:30;;;;;;;1.27;0.93;;;19.10;99.90;;;;;;5080028;28;20653;-89
2022/05/21 07:32:57;;;;;;;2.07;0.80;;;19.10;99.90;;;;;;5086774;28;20631;-90
2022/05/21 07:35:26;;;;;;;2.67;1.13;;;19.10;95.60;;;;;;5077779;28;20644;-89
2022/05/21 07:37:53;;;;;;;1.00;0.90;;;19.10;98.80;;;;;;5081562;28;21205;-89
2022/05/21 07:40:24;;;;;;;2.43;1.10;;;19.20;96.80;;;;;;5084017;28;20664;-90
2022/05/21 07:42:51;;;;;;;2.23;1.00;;;19.30;99.90;;;;;;5085170;28;20951;-89
2022/05/21 07:45:20;;;;;;;3.03;1.00;;;19.40;95.80;;;;;;5082439;28;20632;-90
2022/05/21 07:47:50;;;;;;;1.90;1.00;;;19.30;94.20;;;;;;5085665;28;20620;-90
2022/05/21 07:50:18;;;;;;;1.23;1.00;;;19.00;95.10;;;;;;5082587;28;20662;-90
2022/05/21 07:52:46;;;;;;;0.97;0.90;;;18.90;96.30;;;;;;5084899;28;20636;-89
2022/05/21 07:55:14;;;;;;;1.53;0.97;;;19.00;99.90;;;;;;5084352;28;21212;-90
2022/05/21 07:57:41;;;;;;;0.80;0.80;;;19.20;99.90;;;;;;5087054;28;20671;-90
2022/05/21 08:00:17;;;;;;;3.27;1.20;;;19.50;98.90;;;;;;5083128;28;20659;-89
2022/05/21 08:02:44;;;;;;;0.70;0.67;;;19.50;97.70;;;;;;5082099;28;20644;-90
2022/05/21 08:05:13;;;;;;;0.87;0.70;;;19.70;98.40;;;;;;5084849;28;20620;-89
2022/05/21 08:07:40;;;;;;;1.97;0.90;;;19.70;96.10;;;;;;5082466;28;20608;-90
2022/05/21 08:10:09;;;;;;;1.30;0.93;;;19.80;95.00;;;;;;5081655;28;20725;-89
2022/05/21 08:12:36;;;;;;;2.30;1.03;;;19.80;97.20;;;;;;5084389;28;20632;-91
2022/05/21 08:15:03;;;;;;;1.73;0.90;;;19.70;95.30;;;;;;5085031;28;21159;-90
2022/05/21 08:17:30;;;;;;;1.57;1.30;;;19.60;95.30;;;;;;5084410;28;20667;-90
2022/05/21 08:19:57;;;;;;;4.00;0.80;;;19.60;97.30;;;;;;5090452;28;20645;-90
2022/05/21 08:27:54;;;;;;;1.17;1.00;;;19.90;93.80;;;;;;5086471;28;20810;-89
2022/05/21 08:30:21;;;;;;;0.93;0.83;;;19.80;99.50;;;;;;5085745;28;20640;-90
2022/05/21 08:32:47;;;;;;;2.33;1.10;;;19.90;96.30;;;;;;5084230;28;20626;-91
2022/05/21 08:35:14;;;;;;;1.13;0.73;;;19.80;93.20;;;;;;5084515;28;21166;-90
2022/05/21 08:37:43;;;;;;;0.90;0.60;;;19.80;92.70;;;;;;5081494;28;20666;-90
2022/05/21 08:40:15;;;;;;;2.70;1.00;;;19.60;92.30;;;;;;5077887;28;21158;-90
2022/05/21 08:42:49;;;;;;;0.97;0.70;;;19.70;94.00;;;;;;5086317;28;20635;-90
2022/05/21 08:45:21;;;;;;;1.03;0.97;;;19.60;92.80;;;;;;5085870;28;20646;-91
2022/05/21 08:47:59;;;;;;;1.50;0.90;;;19.70;99.90;;;;;;5085033;28;20689;-90
2022/05/21 08:50:28;;;;;;;1.10;0.80;;;19.70;93.00;;;;;;5089673;28;20662;-90
2022/05/21 08:53:02;;;;;;;1.20;0.83;;;19.90;99.90;;;;;;5084336;28;20708;-90
2022/05/21 08:55:33;;;;;;;1.47;1.07;;;20.10;96.80;;;;;;5085335;28;20632;-91
2022/05/21 08:58:03;;;;;;;1.10;0.80;;;20.50;99.90;;;;;;5089399;28;20648;-90
2022/05/21 09:00:34;;;;;;;1.60;1.00;;;20.60;96.20;;;;;;5087692;28;21090;-91
2022/05/21 09:03:01;;;;;;;0.50;0.50;;;20.50;92.70;;;;;;5090839;28;21198;-90
2022/05/21 09:05:28;;;;;;;0.80;0.80;;;20.40;92.10;;;;;;5089353;28;20636;-91
2022/05/21 09:08:05;;;;;;;1.70;0.70;;;20.40;92.30;;;;;;5088446;28;20631;-91
2022/05/21 09:10:44;;;;;;;1.13;1.03;;;20.50;97.20;;;;;;5090448;28;20639;-91
2022/05/21 09:13:17;;;;;;;2.03;0.70;;;20.60;92.90;;;;;;5088902;28;20628;-91
2022/05/21 09:18:31;;;;;;;1.87;0.73;;;20.70;98.10;;;;;;5076764;28;20770;-91
2022/05/21 09:21:00;;;;;;;1.50;1.00;;;20.80;91.50;;;;;;5085603;28;20690;-91
2022/05/21 09:23:46;;;;;;;1.70;0.77;;;20.70;91.00;;;;;;5086895;28;20644;-91
2022/05/21 09:26:14;;;;;;;1.13;0.93;;;20.90;96.60;;;;;;5087886;28;20624;-91
2022/05/21 09:28:41;;;;;;;1.37;0.77;;;21.00;92.20;;;;;;5085060;28;20627;-91
2022/05/21 09:31:10;;;;;;;2.60;0.67;;;21.00;89.70;;;;;;5084981;28;21178;-91
2022/05/21 09:33:38;;;;;;;1.03;0.90;;;20.90;89.80;;;;;;5084921;28;20631;-91
2022/05/21 09:36:06;;;;;;;1.20;0.77;;;20.90;89.20;;;;;;5089943;28;20672;-91
2022/05/21 09:38:48;;;;;;;0.80;0.80;;;20.80;90.60;;;;;;5089813;28;20678;-90
2022/05/21 09:41:20;;;;;;;3.07;0.97;;;21.00;93.30;;;;;;5082711;28;20660;-91
2022/05/21 09:46:37;;;;;;;2.10;1.07;;;21.40;91.20;;;;;;5086032;28;20691;-91
2022/05/21 09:49:18;;;;;;;1.33;0.90;;;21.60;93.00;;;;;;5087733;28;21167;-92
2022/05/21 09:51:54;;;;;;;1.33;1.17;;;21.80;95.90;;;;;;5083222;28;20624;-91
2022/05/21 09:54:26;;;;;;;1.07;0.80;;;22.00;91.50;;;;;;5082227;28;20628;-91
2022/05/21 09:56:54;;;;;;;3.50;0.90;;;22.10;92.30;;;;;;5086997;28;20636;-92
2022/05/21 09:59:23;;;;;;;1.53;1.03;;;22.10;90.40;;;;;;5087732;28;20694;-92
2022/05/21 10:01:54;;;;;;;1.40;0.90;;;22.10;94.70;;;;;;5089697;28;20608;-92
2022/05/21 10:04:28;;;;;;;0.70;0.70;;;22.20;92.10;;;;;;5082543;28;20978;-92
2022/05/21 10:07:00;;;;;;;2.57;1.53;;;22.40;93.60;;;;;;5086857;28;21101;-91
2022/05/21 10:12:24;;;;;;;1.73;1.60;;;22.20;93.40;;;;;;5086032;28;21173;-92
2022/05/21 10:15:01;;;;;;;1.37;1.00;;;22.30;90.50;;;;;;5088135;28;20608;-91
2022/05/21 10:17:32;;;;;;;2.90;0.73;;;22.30;92.10;;;;;;5089098;28;20696;-92
2022/05/21 10:20:08;;;;;;;2.10;0.80;;;22.20;87.70;;;;;;5090461;28;20743;-92
2022/05/21 10:22:44;;;;;;;1.40;0.90;;;22.20;87.80;;;;;;5085181;28;20616;-93
2022/05/21 10:25:19;;;;;;;1.07;0.77;;;22.20;90.00;;;;;;5091197;28;20639;-92
2022/05/21 10:28:04;;;;;;;0.80;0.80;;;22.30;91.60;;;;;;5087262;28;20651;-93
2022/05/21 10:30:42;;;;;;;3.43;1.00;;;22.60;94.70;;;;;;5089702;28;20687;-93
2022/05/21 10:33:23;;;;;;;3.27;0.87;;;22.80;90.10;;;;;;5090268;28;20608;-92
2022/05/21 10:36:04;;;;;;;1.30;0.77;;;22.80;92.60;;;;;;5102806;28;20695;-93
2022/05/21 10:38:47;;;;;;;1.10;0.60;;;23.10;92.00;;;;;;5107876;28;20651;-94
2022/05/21 10:41:30;;;;;;;0.73;0.73;;;23.30;91.20;;;;;;5109728;28;20646;-94
2022/05/21 10:44:16;;;;;;;0.60;0.60;;;23.50;92.40;;;;;;5104320;28;20717;-94
2022/05/21 10:46:55;;;;;;;1.60;0.93;;;23.80;92.80;;;;;;5105375;28;20631;-94
2022/05/21 10:49:44;;;;;;;1.13;0.70;;;24.00;91.90;;;;;;5105642;28;20624;-94
2022/05/21 10:52:15;;;;;;;1.23;0.73;;;24.20;91.70;;;;;;5096694;28;20645;-95
2022/05/21 10:55:02;;;;;;;0.93;0.77;;;24.40;92.10;;;;;;5083415;28;20614;-94
2022/05/21 10:57:40;;;;;;;2.10;0.90;;;24.50;89.30;;;;;;5081962;28;20647;-94
2022/05/21 11:00:12;;;;;;;0.77;0.63;;;24.50;89.20;;;;;;5089054;28;20750;-94
2022/05/21 11:03:11;;;;;;;2.70;1.23;;;24.70;90.60;;;;;;5089742;28;20697;-95
2022/05/21 11:05:55;;;;;;;0.67;0.67;;;24.70;87.10;;;;;;5086848;28;20639;-94
2022/05/21 11:08:31;;;;;;;0.90;0.77;;;25.00;89.60;;;;;;5088610;28;20624;-94
2022/05/21 11:11:04;;;;;;;1.23;1.13;;;25.10;90.50;;;;;;5086740;28;20714;-94
2022/05/21 11:13:37;;;;;;;1.80;1.40;;;25.10;87.10;;;;;;5087011;28;20638;-95
2022/05/21 11:16:12;;;;;;;1.63;0.70;;;25.20;81.30;;;;;;5086255;28;20699;-95
2022/05/21 11:18:47;;;;;;;1.00;0.73;;;25.20;80.10;;;;;;5089382;28;20694;-94
2022/05/21 11:21:20;;;;;;;1.77;1.20;;;25.30;87.30;;;;;;5089919;28;20675;-94
2022/05/21 11:23:56;;;;;;;1.57;0.90;;;25.40;86.40;;;;;;5090691;28;20628;-95
2022/05/21 11:26:31;;;;;;;1.63;0.80;;;25.60;86.10;;;;;;5095368;28;20632;-95
2022/05/21 11:29:07;;;;;;;1.80;0.63;;;25.70;80.00;;;;;;5103331;28;20658;-95
2022/05/21 11:37:21;;;;;;;1.17;0.90;;;25.60;80.50;;;;;;5087203;28;20605;-95
2022/05/21 11:39:49;;;;;;;0.83;0.83;;;26.00;83.40;;;;;;5108633;28;20751;-94
2022/05/21 11:42:18;;;;;;;1.87;0.77;;;26.40;80.00;;;;;;5107348;28;20616;-95
2022/05/21 11:44:58;;;;;;;2.90;0.90;;;26.50;81.70;;;;;;5106955;28;20630;-94
2022/05/21 11:47:54;;;;;;;0.63;0.63;;;26.90;80.70;;;;;;5090190;28;20636;-94
2022/05/21 11:50:28;;;;;;;2.33;0.80;;;26.90;80.80;;;;;;5081870;28;20660;-93
2022/05/21 11:53:06;;;;;;;2.50;1.37;;;27.20;80.40;;;;;;5082790;28;20637;-93
2022/05/21 11:55:56;;;;;;;1.60;0.93;;;27.60;78.50;;;;;;5079648;28;20968;-93
2022/05/21 11:58:27;;;;;;;1.70;1.27;;;27.70;78.80;;;;;;5084525;28;20655;-94
2022/05/21 12:00:56;;;;;;;0.73;0.60;;;27.50;72.60;;;;;;5077322;28;20657;-93
2022/05/21 12:03:24;;;;;;;1.33;0.83;;;27.40;76.10;;;;;;5084142;28;20643;-94
2022/05/21 12:05:58;;;;;;;3.10;1.00;;;27.40;74.20;;;;;;5084356;28;20616;-95
2022/05/21 12:08:38;;;;;;;1.70;0.80;;;27.20;68.90;;;;;;5087934;28;20624;-94
2022/05/21 12:11:09;;;;;;;1.30;0.97;;;27.50;75.10;;;;;;5084951;28;20674;-93
2022/05/21 12:14:02;;;;;;;3.30;0.80;;;27.80;75.60;;;;;;5081575;28;20623;-93
2022/05/21 12:16:49;;;;;;;3.13;0.90;;;27.70;74.30;;;;;;5081701;28;20638;-94
2022/05/21 12:20:06;;;;;;;0.63;0.60;;;27.90;69.30;;;;;;5080877;28;20667;-94
2022/05/21 12:22:43;;;;;;;1.63;1.10;;;27.90;73.50;;;;;;5085680;28;20632;-94
2022/05/21 12:25:31;;;;;;;1.17;1.00;;;27.80;65.20;;;;;;5088468;28;20632;-94
2022/05/21 12:28:03;;;;;;;1.47;0.93;;;27.70;69.30;;;;;;5091027;28;21001;-93
2022/05/21 12:30:33;;;;;;;1.57;0.80;;;27.60;67.10;;;;;;5095282;28;21208;-93
2022/05/21 12:32:59;;;;;;;2.87;1.20;;;27.90;71.90;;;;;;5088762;28;20624;-94
2022/05/21 12:35:47;;;;;;;3.47;0.93;;;28.00;70.20;;;;;;5087059;28;20655;-92
2022/05/21 12:38:25;;;;;;;1.10;1.00;;;28.10;63.60;;;;;;5091214;28;20693;-93
2022/05/21 12:41:02;;;;;;;1.80;1.17;;;28.10;65.20;;;;;;5087153;28;21004;-93
2022/05/21 12:43:42;;;;;;;1.73;0.90;;;28.10;64.10;;;;;;5089999;28;20633;-93
2022/05/21 12:46:28;;;;;;;1.33;1.03;;;27.80;65.10;;;;;;5086293;28;20635;-93
2022/05/21 12:48:57;;;;;;;3.70;0.83;;;28.10;68.70;;;;;;5092151;28;20630;-93
2022/05/21 12:51:30;;;;;;;2.47;0.97;;;28.50;68.40;;;;;;5096118;28;20658;-92
2022/05/21 12:53:57;;;;;;;1.80;0.77;;;28.80;65.70;;;;;;5092093;28;20661;-92
2022/05/21 12:56:31;;;;;;;2.80;0.90;;;28.70;67.20;;;;;;5092393;28;20663;-93
2022/05/21 12:59:08;;;;;;;2.97;1.73;;;28.90;65.00;;;;;;5093285;28;20651;-93
2022/05/21 13:01:43;;;;;;;4.20;1.10;;;29.00;65.60;;;;;;5093316;28;20650;-93
2022/05/21 13:04:24;;;;;;;2.80;1.10;;;29.30;61.10;;;;;;5089928;28;20667;-92
2022/05/21 13:06:56;;;;;;;1.40;1.10;;;29.30;64.50;;;;;;5090552;28;21182;-92
2022/05/21 13:09:23;;;;;;;2.40;1.03;;;29.30;57.80;;;;;;5087216;28;20624;-92
2022/05/21 13:11:50;;;;;;;1.27;1.17;;;29.10;62.60;;;;;;5092783;28;20627;-93
2022/05/21 13:14:28;;;;;;;2.83;1.23;;;29.10;63.00;;;;;;5087401;28;20723;-93
2022/05/21 13:16:58;;;;;;;1.27;0.70;;;29.20;63.10;;;;;;5088661;28;20632;-93
2022/05/21 13:19:54;;;;;;;3.70;1.20;;;29.60;63.80;;;;;;5093367;28;20686;-93
2022/05/21 13:22:29;;;;;;;4.57;1.20;;;30.00;62.90;;;;;;5098166;28;20632;-93
2022/05/21 13:25:02;;;;;;;2.47;1.27;;;30.10;58.00;;;;;;5087892;28;20619;-93
2022/05/21 13:27:29;;;;;;;1.00;0.90;;;30.10;61.10;;;;;;5091607;27;20608;-92
2022/05/21 13:29:57;;;;;;;3.63;2.10;;;30.20;62.50;;;;;;5083960;28;20687;-90
2022/05/21 13:32:28;;;;;;;1.47;1.07;;;30.00;59.10;;;;;;5092427;28;20627;-92
2022/05/21 13:34:57;;;;;;;2.17;1.10;;;30.30;60.10;;;;;;5087699;28;20609;-92
2022/05/21 13:37:30;;;;;;;2.03;0.97;;;30.30;60.90;;;;;;5085033;28;21209;-92
2022/05/21 13:40:05;;;;;;;1.70;1.20;;;30.40;59.50;;;;;;5085752;28;20680;-93